• Join FlightAware (Why Join?)
  • Login
  • US Flag 
01:27AM EDT


 

Airport Tracker/Info


-or-


 

Live Flight TrackerFlight Track Log ✈ SKW5564 ✈ 30-Aug-2013 ✈ KATL - KDEN

Flight Track Log - Related Links

Times and Time Zones

All times are in EDT time to prevent confusion due to time zone crossing. See the SKW5564 flight status page for this flight to view local times or setup timezone preferences in your user account.

Time Position Orientation Groundspeed Altitude Reporting Facility
EDT Latitude Longitude Course Direction KTS MPH feet Rate Location/Type
07:00PM 33.8367 -84.9047 297° West  Level Estimated
07:01PM 33.8863 -85.0243 297° West  Level Estimated
07:02PM 33.9359 -85.1440 297° West  Level Estimated
07:03PM 33.9854 -85.2638 296° West  Level Estimated
07:04PM 34.0348 -85.3838 296° West  Level Estimated
07:05PM 34.0840 -85.5039 296° West  Level Estimated
07:06PM 34.1331 -85.6242 296° West  Level Estimated
07:07PM 34.1821 -85.7446 296° West  Level Estimated
07:08PM 34.2310 -85.8651 296° West  Level Estimated
07:09PM 34.2798 -85.9858 296° West  Level Estimated
07:10PM 34.3284 -86.1066 296° West  Level Estimated
07:11PM 34.3769 -86.2276 296° West  Level Estimated
07:12PM 34.4254 -86.3487 296° West  Level Estimated
07:13PM 34.4736 -86.4699 296° West  Level Estimated
07:14PM 34.5218 -86.5913 296° West  Level Estimated
07:15PM 34.5699 -86.7128 296° West  Level Estimated
07:16PM 34.6178 -86.8345 296° West  Level Estimated
07:17PM 34.6656 -86.9563 296° West  Level Estimated
07:18PM 34.7133 -87.0782 295° West  Level Estimated
07:19PM 34.7609 -87.2003 295° West  Level Estimated
07:20PM 34.8083 -87.3225 295° West  Level Estimated
07:21PM 34.8556 -87.4449 295° West  Level Estimated
07:22PM 34.9028 -87.5674 295° West  Level Estimated
07:23PM 34.9499 -87.6900 295° West  Level Estimated
07:24PM 34.9968 -87.8128 295° West  Level Estimated
07:25PM 35.0437 -87.9357 295° West  Level Estimated
07:26PM 35.0904 -88.0588 295° West  Level Estimated
07:27PM 35.1370 -88.1820 295° West  Level Estimated
07:28PM 35.1834 -88.3054 295° West  Level Estimated
07:29PM 35.2297 -88.4288 295° West  Level Estimated
07:30PM 35.2759 -88.5525 295° West  Level Estimated
07:31PM 35.3220 -88.6762 295° West  Level Estimated
07:32PM 35.3680 -88.8001 294° West  Level Estimated
07:33PM 35.4138 -88.9242 294° West  Level Estimated
07:34PM 35.4595 -89.0484 294° West  Level Estimated
07:35PM 35.5051 -89.1727 294° West  Level Estimated
07:36PM 35.5505 -89.2972 294° West  Level Estimated
07:37PM 35.5958 -89.4218 294° West  Level Estimated
07:38PM 35.6410 -89.5466 294° West  Level Estimated
07:39PM 35.6861 -89.6715 294° West  Level Estimated
07:40PM 35.7310 -89.7965 294° West  Level Estimated
07:41PM 35.7758 -89.9217 294° West  Level Estimated
07:42PM 35.8205 -90.0470 294° West  Level Estimated
07:43PM 35.8650 -90.1725 294° West  Level Estimated
07:44PM 35.9094 -90.2981 294° West  Level Estimated
07:45PM 35.9537 -90.4238 294° West  Level Estimated
07:46PM 35.9979 -90.5497 293° West  Level Estimated
07:47PM 36.0419 -90.6757 293° West  Level Estimated
07:48PM 36.0858 -90.8019 293° West  Level Estimated
07:49PM 36.1295 -90.9282 293° West  Level Estimated
07:50PM 36.1731 -91.0546 293° West  Level Estimated
07:51PM 36.2166 -91.1812 293° West  Level Estimated
07:52PM 36.2599 -91.3080 293° West  Level Estimated
07:53PM 36.3032 -91.4348 293° West  Level Estimated
07:54PM 36.3462 -91.5618 293° West  Level Estimated
07:55PM 36.3892 -91.6890 293° West  Level Estimated
07:56PM 36.4320 -91.8163 293° West  Level Estimated
07:57PM 36.4747 -91.9437 293° West  Level Estimated
07:58PM 36.5172 -92.0713 293° West  Level Estimated
07:59PM 36.5596 -92.1990 292° West  Level Estimated
08:00PM 36.6019 -92.3268 292° West  Level Estimated
08:01PM 36.6440 -92.4548 292° West  Level Estimated
08:02PM 36.6860 -92.5830 292° West  Level Estimated
08:03PM 36.7279 -92.7112 292° West  Level Estimated
08:04PM 36.7696 -92.8396 292° West  Level Estimated
08:05PM 36.8112 -92.9682 292° West  Level Estimated
08:06PM 36.8526 -93.0969 292° West  Level Estimated
08:07PM 36.8940 -93.2257 292° West  Level Estimated
08:08PM 36.9351 -93.3547 292° West  Level Estimated
08:09PM 36.9762 -93.4838 292° West  Level Estimated
08:10PM 37.0170 -93.6130 292° West  Level Estimated
08:11PM 37.0578 -93.7424 292° West  Level Estimated
08:12PM 37.0984 -93.8719 291° West  Level Estimated
08:13PM 37.1389 -94.0016 291° West  Level Estimated
08:14PM 37.1792 -94.1314 291° West  Level Estimated
08:15PM 37.2194 -94.2613 291° West  Level Estimated
08:16PM 37.2594 -94.3914 291° West  Level Estimated
08:17PM 37.2993 -94.5216 291° West  Level Estimated
08:18PM 37.3391 -94.6520 291° West  Level Estimated
08:19PM 37.3787 -94.7825 291° West  Level Estimated
08:20PM 37.4181 -94.9131 291° West  Level Estimated
08:21PM 37.4575 -95.0439 291° West  Level Estimated
08:22PM 37.4966 -95.1748 291° West  Level Estimated
08:23PM 37.5357 -95.3058 291° West  Level Estimated
08:24PM 37.5746 -95.4370 291° West  Level Estimated
08:25PM 37.6133 -95.5683 290° West  Level Estimated
08:26PM 37.6519 -95.6998 290° West  Level Estimated
08:27PM 37.6903 -95.8314 290° West  Level Estimated
08:28PM 37.7287 -95.9631 290° West  Level Estimated
08:29PM 37.7668 -96.0949 290° West  Level Estimated
08:30PM 37.8048 -96.2269 290° West  Level Estimated
08:31PM 37.8427 -96.3591 290° West  Level Estimated
08:32PM 37.8804 -96.4913 290° West  Level Estimated
08:33PM 37.9180 -96.6237 290° West  Level Estimated
08:34PM 37.9554 -96.7563 290° West  Level Estimated
08:35PM 37.9927 -96.8889 290° West  Level Estimated
08:36PM 38.0298 -97.0218 290° West  Level Estimated
08:37PM 38.0668 -97.1547 289° West  Level Estimated
08:38PM 38.1036 -97.2878 289° West  Level Estimated
08:39PM 38.1403 -97.4210 289° West  Level Estimated
08:40PM 38.1768 -97.5543 289° West  Level Estimated
08:41PM 38.2132 -97.6878 289° West  Level Estimated
08:42PM 38.2494 -97.8214 289° West  Level Estimated
08:43PM 38.2854 -97.9551 289° West  Level Estimated
08:44PM 38.3214 -98.0890 289° West  Level Estimated
08:45PM 38.3571 -98.2230 289° West  Level Estimated
08:46PM 38.3927 -98.3572 289° West  Level Estimated
08:47PM 38.4282 -98.4914 289° West  Level Estimated
08:48PM 38.4635 -98.6258 289° West  Level Estimated
08:49PM 38.4987 -98.7604 288° West  Level Estimated
08:50PM 38.5337 -98.8951 288° West  Level Estimated
08:51PM 38.5685 -99.0299 288° West  Level Estimated
08:52PM 38.6032 -99.1648 288° West  Level Estimated
08:53PM 38.6377 -99.2999 288° West  Level Estimated
08:54PM 38.6721 -99.4350 288° West  Level Estimated
08:55PM 38.7063 -99.5704 288° West  Level Estimated
08:56PM 38.7404 -99.7058 288° West  Level Estimated
08:57PM 38.7743 -99.8414 288° West  Level Estimated
08:58PM 38.8080 -99.9771 288° West  Level Estimated
08:59PM 38.8416 -100.1129 288° West  Level Estimated
09:00PM 38.8751 -100.2489 288° West  Level Estimated
09:01PM 38.9084 -100.3850 287° West  Level Estimated
09:02PM 38.9415 -100.5212 287° West  Level Estimated
09:03PM 38.9744 -100.6575 287° West  Level Estimated
09:04PM 39.0073 -100.7940 287° West  Level Estimated
09:05PM 39.0399 -100.9306 287° West  Level Estimated
09:06PM 39.0724 -101.0673 287° West  Level Estimated
09:07PM 39.1047 -101.2042 287° West  Level Estimated
09:08PM 39.1369 -101.3411 287° West  Level Estimated
09:09PM 39.1689 -101.4782 287° West  Level Estimated
09:10PM 39.2008 -101.6155 287° West  Level Estimated
09:11PM 39.2324 -101.7528 287° West  Level Estimated
09:12PM 39.2640 -101.8903 287° West  Level Estimated
09:13PM 39.2953 -102.0279 286° West  Level Estimated
09:14PM 39.3265 -102.1656 286° West  Level Estimated
09:15PM 39.3576 -102.3034 286° West  Level Estimated
09:16PM 39.3884 -102.4414 286° West  Level Estimated
09:17PM 39.4191 -102.5795 286° West  Level Estimated
09:18PM 39.4497 -102.7177 286° West  Level Estimated
09:19PM 39.4801 -102.8560 286° West  Level Estimated
09:20PM 39.5103 -102.9945 286° West  Level Estimated
09:21PM 39.5404 -103.1330 286° West  Level Estimated
09:22PM 39.5702 -103.2717 286° West  Level Estimated
09:23PM 39.6000 -103.4105 286° West  Level Estimated
09:24PM 39.6295 -103.5494 285° West  Level Estimated
09:25PM 39.6589 -103.6885 285° West  Level Estimated
09:26PM 39.6882 -103.8276 285° West  Level Estimated
09:27PM 39.7172 -103.9669 285° West  Level Estimated
09:28PM 39.7461 -104.1063 285° West  Level Estimated
09:29PM 39.7748 -104.2458 285° West  Level Estimated
09:30PM 39.8034 -104.3854 285° West  Level Estimated
09:31PM 39.8318 -104.5252 285° West  Level Estimated
09:32PM 39.8600 -104.6650 285° West  Level Estimated
09:33PM 39.8617 -104.6732 285° West  Level Estimated
09:34PM 39.8617 -104.6732 142° Southeast  Level Estimated
09:35PM 39.8617 -104.6732 142° Southeast  Level Estimated
09:36PM 39.8617 -104.6732 142° Southeast  Level Estimated
09:37PM 39.8617 -104.6732 142° Southeast  Level Estimated
09:38PM 39.8617 -104.6732 142° Southeast  Level Estimated
09:39PM 39.8617 -104.6732 142° Southeast  Level Estimated
09:40PM 39.8617 -104.6732 142° Southeast  Level Estimated
09:41PM 39.8617 -104.6732 142° Southeast  Level Estimated
09:42PM 39.8617 -104.6732 142° Southeast  Level Estimated
09:43PM 39.8617 -104.6732 142° Southeast  Level Estimated
09:44PM 39.8617 -104.6732 142° Southeast  Level Estimated
09:45PM 39.8617 -104.6732 142° Southeast  Level Estimated
09:46PM 39.8617 -104.6732 142° Southeast  Level Estimated